createdAt,value
2019-02-16T00:01:16.737Z,101265.19
2019-02-16T00:03:44.927Z,101265.19
2019-02-16T00:06:13.106Z,101263.30
2019-02-16T00:08:41.767Z,101258.11
2019-02-16T00:11:09.809Z,101259.41
2019-02-16T00:13:37.883Z,101262.01
2019-02-16T00:16:07.732Z,101257.99
2019-02-16T00:18:36.322Z,101259.29
2019-02-16T00:21:04.541Z,101264.97
2019-02-16T00:23:32.749Z,101261.65
2019-02-16T00:26:01.216Z,101263.78
2019-02-16T00:28:29.257Z,101265.55
2019-02-16T00:30:57.535Z,101264.61
2019-02-16T00:33:25.694Z,101266.73
2019-02-16T00:35:53.755Z,101265.32
2019-02-16T00:38:21.852Z,101264.49
2019-02-16T00:40:50.298Z,101267.45
2019-02-16T00:43:19.772Z,101271.73
2019-02-16T00:45:47.794Z,101274.34
2019-02-16T00:48:15.868Z,101270.87
2019-02-16T00:50:43.919Z,101277.37
2019-02-16T00:53:12.073Z,101276.19
2019-02-16T00:55:40.129Z,101269.45
2019-02-16T00:58:08.184Z,101274.53
2019-02-16T01:00:36.633Z,101272.88
2019-02-16T01:03:04.683Z,101263.97
2019-02-16T01:05:33.075Z,101272.25
2019-02-16T01:08:01.116Z,101269.88
2019-02-16T01:10:30.337Z,101272.59
2019-02-16T01:12:58.394Z,101271.37
2019-02-16T01:15:26.571Z,101273.14
2019-02-16T01:17:55.007Z,101266.52
2019-02-16T01:20:24.035Z,101274.89
2019-02-16T01:22:52.488Z,101268.59
2019-02-16T01:25:20.670Z,101267.98
2019-02-16T01:27:48.837Z,101262.62
2019-02-16T01:30:16.890Z,101257.18
2019-02-16T01:32:45.284Z,101260.44
2019-02-16T01:35:14.092Z,101254.89
2019-02-16T01:37:42.358Z,101259.09
2019-02-16T01:40:10.768Z,101254.95
2019-02-16T01:42:38.851Z,101254.78
2019-02-16T01:45:08.835Z,101255.00
2019-02-16T01:47:36.879Z,101253.34
2019-02-16T01:50:06.089Z,101247.40
2019-02-16T01:52:34.445Z,101253.29
2019-02-16T01:55:03.051Z,101249.94
2019-02-16T01:57:31.127Z,101253.13
2019-02-16T02:00:01.349Z,101248.98
2019-02-16T02:02:29.422Z,101254.28
2019-02-16T02:04:58.489Z,101248.26
2019-02-16T02:07:26.517Z,101249.27
2019-02-16T02:09:54.685Z,101253.75
2019-02-16T02:12:22.639Z,101252.17
2019-02-16T02:14:50.700Z,101262.56
2019-02-16T02:17:18.825Z,101249.69
2019-02-16T02:19:46.975Z,101259.72
2019-02-16T02:22:15.032Z,101255.45
2019-02-16T02:24:43.444Z,101258.17
2019-02-16T02:27:11.513Z,101256.95
2019-02-16T02:29:39.606Z,101258.71
2019-02-16T02:32:08.860Z,101265.31
2019-02-16T02:34:36.935Z,101255.98
2019-02-16T02:37:04.993Z,101259.41
2019-02-16T02:39:33.087Z,101252.19
2019-02-16T02:42:01.130Z,101256.55
2019-02-16T02:44:29.221Z,101262.58
2019-02-16T02:46:58.473Z,101272.97
2019-02-16T02:49:26.511Z,101259.70
2019-02-16T02:51:54.527Z,101260.17
2019-02-16T02:54:22.766Z,101263.81
2019-02-16T02:56:50.848Z,101265.58
2019-02-16T02:59:18.905Z,101272.14
2019-02-16T03:01:47.163Z,101267.64
2019-02-16T03:04:15.367Z,101269.52
2019-02-16T03:06:43.418Z,101266.16
2019-02-16T03:09:11.469Z,101268.87
2019-02-16T03:11:39.520Z,101264.25
2019-02-16T03:14:07.864Z,101265.23
2019-02-16T03:16:35.910Z,101268.16
2019-02-16T03:19:03.952Z,101266.67
2019-02-16T03:21:32.002Z,101254.38
2019-02-16T03:24:00.065Z,101249.73
2019-02-16T03:27:01.562Z,101244.94
2019-02-16T03:30:15.817Z,101245.88
2019-02-16T03:33:49.211Z,101244.33
2019-02-16T03:37:06.780Z,101248.87
2019-02-16T03:39:40.510Z,101248.36
2019-02-16T03:42:08.945Z,101247.52
2019-02-16T03:44:37.107Z,101252.25
2019-02-16T03:47:05.193Z,101254.45
2019-02-16T03:49:33.246Z,101251.96
2019-02-16T03:52:01.334Z,101245.58
2019-02-16T03:54:29.385Z,101250.52
2019-02-16T03:56:58.536Z,101246.33
2019-02-16T03:59:26.652Z,101258.01
2019-02-16T04:01:54.717Z,101263.30
2019-02-16T04:04:23.079Z,101256.63
2019-02-16T04:06:52.851Z,101264.41
2019-02-16T04:09:20.923Z,101266.17
2019-02-16T04:11:49.303Z,101260.63
2019-02-16T04:14:17.583Z,101267.69
2019-02-16T04:16:45.943Z,101268.25
2019-02-16T04:19:14.378Z,101269.16
2019-02-16T04:21:42.432Z,101274.09
2019-02-16T04:24:10.856Z,101277.42
2019-02-16T04:26:40.693Z,101279.39
2019-02-16T04:29:08.871Z,101283.56
2019-02-16T04:31:37.213Z,101286.62
2019-02-16T04:34:05.630Z,101282.64
2019-02-16T04:36:34.082Z,101280.63
2019-02-16T04:39:04.722Z,101290.63
2019-02-16T04:41:33.128Z,101281.36
2019-02-16T04:44:01.180Z,101278.61
2019-02-16T04:46:29.417Z,101283.13
2019-02-16T04:48:57.849Z,101279.34
2019-02-16T04:51:25.922Z,101278.69
2019-02-16T04:53:53.976Z,101276.20
2019-02-16T04:56:23.494Z,101278.42
2019-02-16T04:58:51.737Z,101276.11
2019-02-16T05:01:19.791Z,101279.73
2019-02-16T05:03:48.177Z,101279.36
2019-02-16T05:06:18.481Z,101275.55
2019-02-16T05:08:46.690Z,101280.09
2019-02-16T05:11:15.078Z,101276.48
2019-02-16T05:13:43.461Z,101280.20
2019-02-16T05:16:11.540Z,101276.38
2019-02-16T05:18:39.910Z,101277.87
2019-02-16T05:21:08.016Z,101277.98
2019-02-16T05:23:36.105Z,101276.22
2019-02-16T05:26:04.548Z,101274.25
2019-02-16T05:28:32.672Z,101277.31
2019-02-16T05:31:00.753Z,101274.63
2019-02-16T05:33:29.107Z,101275.28
2019-02-16T05:35:57.500Z,101265.55
2019-02-16T05:38:25.563Z,101270.27
2019-02-16T05:40:54.011Z,101269.38
2019-02-16T05:43:22.097Z,101262.70
2019-02-16T05:45:50.209Z,101264.09
2019-02-16T05:48:20.050Z,101270.36
2019-02-16T05:50:49.196Z,101273.05
2019-02-16T05:53:17.251Z,101271.09
2019-02-16T05:55:45.319Z,101275.08
2019-02-16T05:58:13.376Z,101280.35
2019-02-16T06:00:41.558Z,101277.03
2019-02-16T06:03:09.489Z,101272.02
2019-02-16T06:05:37.526Z,101271.28
2019-02-16T06:08:06.277Z,101277.48
2019-02-16T06:10:34.617Z,101275.42
2019-02-16T06:13:02.703Z,101278.48
2019-02-16T06:15:30.732Z,101275.42
2019-02-16T06:17:58.889Z,101285.05
2019-02-16T06:20:30.161Z,101280.43
2019-02-16T06:23:04.301Z,101286.07
2019-02-16T06:25:29.133Z,101294.73
2019-02-16T06:27:57.689Z,101299.91
2019-02-16T06:30:26.072Z,101301.20
2019-02-16T06:32:56.856Z,101298.81
2019-02-16T06:35:40.380Z,101295.76
2019-02-16T06:38:09.575Z,101300.84
2019-02-16T06:40:37.639Z,101299.17
2019-02-16T06:43:06.068Z,101301.77
2019-02-16T06:45:34.397Z,101296.22
2019-02-16T06:48:02.780Z,101300.84
2019-02-16T06:50:36.785Z,101298.25
2019-02-16T06:53:01.146Z,101302.13
2019-02-16T06:55:39.786Z,101299.55
2019-02-16T06:58:07.860Z,101304.27
2019-02-16T07:00:35.941Z,101297.78
2019-02-16T07:03:03.990Z,101298.62
2019-02-16T07:05:32.056Z,101307.68
2019-02-16T07:08:00.165Z,101307.16
2019-02-16T07:10:28.316Z,101305.39
2019-02-16T07:12:58.610Z,101301.31
2019-02-16T07:15:26.588Z,101297.64
2019-02-16T07:18:09.501Z,101309.30
2019-02-16T07:20:37.659Z,101312.00
2019-02-16T07:23:05.626Z,101303.77
2019-02-16T07:25:33.685Z,101298.97
2019-02-16T07:28:01.966Z,101301.86
2019-02-16T07:30:30.002Z,101311.56
2019-02-16T07:32:59.915Z,101311.45
2019-02-16T07:35:27.989Z,101309.14
2019-02-16T07:37:56.379Z,101308.91
2019-02-16T07:40:24.494Z,101316.74
2019-02-16T07:42:58.800Z,101315.12
2019-02-16T07:45:54.571Z,101322.45
2019-02-16T07:48:51.489Z,101323.97
2019-02-16T07:51:48.648Z,101321.03
2019-02-16T07:54:36.646Z,101326.42
2019-02-16T07:57:09.767Z,101328.56
2019-02-16T07:59:55.942Z,101329.64
2019-02-16T08:02:42.034Z,101327.80
2019-02-16T08:05:15.947Z,101331.98
2019-02-16T08:08:12.617Z,101325.72
2019-02-16T08:11:15.102Z,101331.61
2019-02-16T08:14:02.794Z,101323.83
2019-02-16T08:16:52.670Z,101317.41
2019-02-16T08:19:52.088Z,101322.80
2019-02-16T08:22:30.284Z,101329.12
2019-02-16T08:25:10.489Z,101324.19
2019-02-16T08:28:00.912Z,101317.58
2019-02-16T08:30:39.331Z,101323.14
2019-02-16T08:33:31.070Z,101316.09
2019-02-16T08:36:21.801Z,101301.51
2019-02-16T08:39:08.312Z,101302.47
2019-02-16T08:41:58.645Z,101300.56
2019-02-16T08:44:49.450Z,101293.41
2019-02-16T08:47:35.988Z,101296.11
2019-02-16T08:50:22.826Z,101290.61
2019-02-16T08:53:00.290Z,101285.62
2019-02-16T08:55:47.119Z,101282.11
2019-02-16T08:58:32.697Z,101275.27
2019-02-16T09:01:19.902Z,101270.55
2019-02-16T09:03:54.452Z,101268.38
2019-02-16T09:06:51.200Z,101262.67
2019-02-16T09:09:51.042Z,101259.58
2019-02-16T09:12:38.714Z,101258.28
2019-02-16T09:15:18.605Z,101256.77
2019-02-16T09:18:09.871Z,101251.25
2019-02-16T09:21:04.103Z,101253.86
2019-02-16T09:23:59.448Z,101253.22
2019-02-16T09:26:52.742Z,101257.50
2019-02-16T09:29:55.419Z,101252.81
2019-02-16T09:32:43.076Z,101248.80
2019-02-16T09:35:33.953Z,101248.99
2019-02-16T09:38:33.644Z,101248.81
2019-02-16T09:41:30.106Z,101247.67
2019-02-16T09:44:16.712Z,101243.44
2019-02-16T09:47:04.666Z,101236.03
2019-02-16T09:49:51.108Z,101235.27
2019-02-16T09:52:25.506Z,101237.22
2019-02-16T09:55:21.963Z,101232.91
2019-02-16T09:58:08.452Z,101238.78
2019-02-16T10:00:45.885Z,101228.08
2019-02-16T10:03:29.520Z,101222.36
2019-02-16T10:06:17.199Z,101227.77
2019-02-16T10:09:05.037Z,101223.61
2019-02-16T10:11:56.355Z,101228.55
2019-02-16T10:14:34.032Z,101235.25
2019-02-16T10:17:10.006Z,101230.81
2019-02-16T10:19:51.931Z,101235.92
2019-02-16T10:22:46.200Z,101233.67
2019-02-16T10:25:33.853Z,101234.16
2019-02-16T10:28:30.870Z,101237.61
2019-02-16T10:31:22.832Z,101239.72
2019-02-16T10:34:10.475Z,101232.23
2019-02-16T10:37:00.730Z,101234.44
2019-02-16T10:39:36.416Z,101238.43
2019-02-16T10:42:30.255Z,101240.11
2019-02-16T10:45:17.923Z,101234.69
2019-02-16T10:47:57.584Z,101232.15
2019-02-16T10:51:04.356Z,101227.03
2019-02-16T10:53:41.369Z,101225.75
2019-02-16T10:56:29.717Z,101216.64
2019-02-16T10:59:26.474Z,101215.37
2019-02-16T11:02:23.085Z,101211.09
2019-02-16T11:05:09.507Z,101208.17
2019-02-16T11:07:57.170Z,101208.68
2019-02-16T11:10:40.734Z,101210.90
2019-02-16T11:13:27.236Z,101210.00
2019-02-16T11:16:21.214Z,101204.89
2019-02-16T11:19:14.367Z,101197.64
2019-02-16T11:22:01.195Z,101197.45
2019-02-16T11:24:50.035Z,101193.14
2019-02-16T11:27:36.505Z,101192.65
2019-02-16T11:30:11.964Z,101187.22
2019-02-16T11:32:53.179Z,101175.55
2019-02-16T11:35:33.738Z,101176.56
2019-02-16T11:38:21.560Z,101176.16
2019-02-16T11:41:16.868Z,101165.54
2019-02-16T11:44:01.483Z,101167.13
2019-02-16T11:46:54.848Z,101158.64
2019-02-16T11:49:45.773Z,101150.55
2019-02-16T11:52:39.441Z,101149.70
2019-02-16T11:55:24.859Z,101146.10
2019-02-16T11:58:12.945Z,101137.02
2019-02-16T12:01:01.219Z,101128.56
2019-02-16T12:03:57.496Z,101124.30
2019-02-16T12:06:31.111Z,101122.13
2019-02-16T12:09:10.210Z,101114.51
2019-02-16T12:11:54.619Z,101117.83
2019-02-16T12:14:45.313Z,101108.84
2019-02-16T12:17:27.486Z,101107.84
2019-02-16T12:20:04.868Z,101104.66
2019-02-16T12:22:56.292Z,101100.97
2019-02-16T12:25:46.969Z,101105.42
2019-02-16T12:28:37.705Z,101105.13
2019-02-16T12:31:15.617Z,101105.94
2019-02-16T12:34:02.107Z,101103.52
2019-02-16T12:36:55.428Z,101094.56
2019-02-16T12:39:29.989Z,101093.00
2019-02-16T12:42:17.702Z,101094.23
2019-02-16T12:44:58.202Z,101086.22
2019-02-16T12:47:36.001Z,101085.15
2019-02-16T12:50:16.455Z,101079.25
2019-02-16T12:53:04.152Z,101078.51
2019-02-16T12:55:45.265Z,101080.86
2019-02-16T12:58:19.003Z,101080.38
2019-02-16T13:01:25.292Z,101073.64
2019-02-16T13:04:04.174Z,101079.92
2019-02-16T13:06:44.867Z,101072.80
2019-02-16T13:09:18.671Z,101068.16
2019-02-16T13:12:09.676Z,101062.73
2019-02-16T13:15:02.758Z,101064.59
2019-02-16T13:17:49.183Z,101061.49
2019-02-16T13:20:42.969Z,101054.75
2019-02-16T13:23:40.618Z,101056.20
2019-02-16T13:26:31.359Z,101053.61
2019-02-16T13:29:20.910Z,101055.16
2019-02-16T13:32:08.819Z,101049.33
2019-02-16T13:34:47.109Z,101044.51
2019-02-16T13:37:26.741Z,101036.38
2019-02-16T13:40:05.765Z,101037.37
2019-02-16T13:42:42.543Z,101038.34
2019-02-16T13:45:33.532Z,101034.41
2019-02-16T13:48:27.606Z,101031.56
2019-02-16T13:51:15.268Z,101035.39
2019-02-16T13:54:12.288Z,101030.92
2019-02-16T13:57:12.259Z,101023.01
2019-02-16T13:59:59.960Z,101026.03
2019-02-16T14:02:40.643Z,101023.95
2019-02-16T14:05:14.938Z,101019.64
2019-02-16T14:08:06.032Z,101019.20
2019-02-16T14:10:56.817Z,101020.41
2019-02-16T14:13:43.156Z,101014.16
2019-02-16T14:16:31.103Z,101005.55
2019-02-16T14:18:59.146Z,101001.56
2019-02-16T14:21:27.210Z,101002.67
2019-02-16T14:23:56.943Z,101005.70
2019-02-16T14:26:25.071Z,100998.84
2019-02-16T14:28:53.143Z,100997.88
2019-02-16T14:31:28.284Z,100999.07
2019-02-16T14:33:51.489Z,100999.04
2019-02-16T14:36:19.627Z,100993.94
2019-02-16T14:39:04.941Z,100996.33
2019-02-16T14:41:33.886Z,100991.33
2019-02-16T14:44:02.019Z,100993.65
2019-02-16T14:46:30.120Z,100987.62
2019-02-16T14:48:58.233Z,100991.94
2019-02-16T14:51:26.959Z,100989.87
2019-02-16T14:53:55.024Z,100986.95
2019-02-16T14:56:25.903Z,100986.95
2019-02-16T14:58:54.426Z,100990.19
2019-02-16T15:01:22.658Z,100989.63
2019-02-16T15:03:50.921Z,100983.61
2019-02-16T15:06:20.626Z,100979.20
2019-02-16T15:08:48.737Z,100984.53
2019-02-16T15:11:17.052Z,100977.89
2019-02-16T15:13:46.448Z,100979.98
2019-02-16T15:16:14.846Z,100985.00
2019-02-16T15:18:43.188Z,100977.30
2019-02-16T15:21:11.252Z,100972.52
2019-02-16T15:23:39.983Z,100969.72
2019-02-16T15:26:09.663Z,100972.00
2019-02-16T15:28:37.941Z,100966.39
2019-02-16T15:31:06.370Z,100972.97
2019-02-16T15:33:34.927Z,100970.04
2019-02-16T15:36:03.008Z,100964.69
2019-02-16T15:38:33.205Z,100961.49
2019-02-16T15:41:01.571Z,100964.28
2019-02-16T15:43:31.541Z,100959.50
2019-02-16T15:46:00.328Z,100963.33
2019-02-16T15:48:29.178Z,100951.53
2019-02-16T15:50:57.549Z,100952.13
2019-02-16T15:53:25.636Z,100961.06
2019-02-16T15:55:53.681Z,100961.39
2019-02-16T15:58:21.819Z,100959.28
2019-02-16T16:00:50.036Z,100966.33
2019-02-16T16:03:18.282Z,100961.18
2019-02-16T16:05:46.567Z,100967.96
2019-02-16T16:08:37.296Z,100968.47
2019-02-16T16:11:09.380Z,100963.00
2019-02-16T16:14:00.033Z,100958.05
2019-02-16T16:16:42.823Z,100956.30
2019-02-16T16:19:39.652Z,100953.13
2019-02-16T16:22:16.771Z,100957.75
2019-02-16T16:25:04.379Z,100957.92
2019-02-16T16:28:00.893Z,100954.30
2019-02-16T16:30:50.453Z,100963.48
2019-02-16T16:33:47.200Z,100957.01
2019-02-16T16:36:21.561Z,100957.55
2019-02-16T16:39:08.073Z,100962.03
2019-02-16T16:41:59.628Z,100958.50
2019-02-16T16:44:42.274Z,100962.91
2019-02-16T16:47:36.230Z,100960.84
2019-02-16T16:50:27.213Z,100960.61
2019-02-16T16:53:13.649Z,100964.89
2019-02-16T16:56:07.176Z,100958.68
2019-02-16T16:58:42.786Z,100967.22
2019-02-16T17:01:17.287Z,100968.94
2019-02-16T17:03:52.451Z,100973.99
2019-02-16T17:06:46.875Z,100976.63
2019-02-16T17:09:24.413Z,100981.65
2019-02-16T17:12:34.579Z,100982.52
2019-02-16T17:15:18.423Z,100984.95
2019-02-16T17:17:51.508Z,100987.89
2019-02-16T17:20:31.449Z,100992.41
2019-02-16T17:23:18.325Z,100999.71
2019-02-16T17:29:09.506Z,100999.92
2019-02-16T17:31:45.411Z,101004.62
2019-02-16T17:34:33.927Z,100997.58
2019-02-16T17:37:19.224Z,101010.09
2019-02-16T17:40:16.296Z,101010.58
2019-02-16T17:43:07.621Z,101019.77
2019-02-16T17:45:59.451Z,101013.54
2019-02-16T17:48:46.554Z,101021.66
2019-02-16T17:51:51.872Z,101019.64
2019-02-16T17:54:32.255Z,101020.49
2019-02-16T17:57:20.970Z,101022.17
2019-02-16T18:00:13.838Z,101024.41
2019-02-16T18:03:00.757Z,101021.68
2019-02-16T18:05:41.408Z,101020.59
2019-02-16T18:08:27.896Z,101021.75
2019-02-16T18:11:16.013Z,101021.08
2019-02-16T18:14:10.651Z,101022.39
2019-02-16T18:16:50.422Z,101023.02
2019-02-16T18:19:26.573Z,101021.60
2019-02-16T18:22:07.606Z,101023.77
2019-02-16T18:25:02.124Z,101017.72
2019-02-16T18:27:41.459Z,101025.16
2019-02-16T18:30:27.983Z,101024.34
2019-02-16T18:33:16.355Z,101020.05
2019-02-16T18:36:08.171Z,101008.50
2019-02-16T18:38:43.078Z,101005.83
2019-02-16T18:41:35.083Z,101008.92
2019-02-16T18:44:38.587Z,101007.23
2019-02-16T18:47:46.344Z,101005.52
2019-02-16T18:50:27.836Z,101001.52
2019-02-16T18:53:21.580Z,101003.76
2019-02-16T18:56:03.566Z,101001.42
2019-02-16T18:58:51.872Z,101003.69
2019-02-16T19:01:39.985Z,101004.14
2019-02-16T19:04:26.229Z,101009.80
2019-02-16T19:07:02.422Z,101005.45
2019-02-16T19:09:56.673Z,101010.33
2019-02-16T19:12:51.839Z,101008.92
2019-02-16T19:15:29.180Z,101003.74
2019-02-16T19:18:18.043Z,101001.06
2019-02-16T19:20:58.753Z,100998.37
2019-02-16T19:23:46.414Z,101003.39
2019-02-16T19:26:32.812Z,101003.17
2019-02-16T19:29:23.965Z,100994.25
2019-02-16T19:31:58.520Z,100998.73
2019-02-16T19:34:46.631Z,101000.30
2019-02-16T19:37:37.683Z,100993.02
2019-02-16T19:40:14.242Z,100994.13
2019-02-16T19:43:02.006Z,100995.20
2019-02-16T19:45:48.446Z,100995.80
2019-02-16T19:48:44.783Z,100999.48
2019-02-16T19:51:35.442Z,100994.01
2019-02-16T19:54:11.513Z,101001.30
2019-02-16T19:57:06.980Z,101000.65
2019-02-16T19:59:57.514Z,101001.44
2019-02-16T20:02:37.234Z,101002.17
2019-02-16T20:05:26.215Z,101001.09
2019-02-16T20:08:11.124Z,100998.89
2019-02-16T20:10:59.195Z,100994.71
2019-02-16T20:13:46.036Z,101001.20
2019-02-16T20:16:27.527Z,101005.35
2019-02-16T20:19:07.232Z,101006.41
2019-02-16T20:21:48.648Z,101010.92
2019-02-16T20:24:42.437Z,101005.77
2019-02-16T20:27:39.221Z,101009.13
2019-02-16T20:30:30.605Z,101000.53
2019-02-16T20:33:18.579Z,100996.67
2019-02-16T20:35:59.247Z,101004.83
2019-02-16T20:38:37.660Z,100999.03
2019-02-16T20:41:33.417Z,100991.32
2019-02-16T20:44:12.211Z,100997.19
2019-02-16T20:46:45.249Z,100996.14
2019-02-16T20:49:29.566Z,101002.34
2019-02-16T20:52:29.218Z,101001.33
2019-02-16T20:55:03.071Z,101001.73
2019-02-16T20:57:51.352Z,101001.80
2019-02-16T21:00:39.172Z,101010.96
2019-02-16T21:03:29.068Z,101003.66
2019-02-16T21:06:16.772Z,101006.48
2019-02-16T21:09:13.418Z,101000.53
2019-02-16T21:11:53.015Z,100997.69
2019-02-16T21:14:28.088Z,100992.52
2019-02-16T21:17:12.312Z,100988.68
2019-02-16T21:20:03.095Z,100993.48
2019-02-16T21:22:55.810Z,100997.66
2019-02-16T21:25:30.522Z,100991.75
2019-02-16T21:28:24.508Z,100990.36
2019-02-16T21:31:01.113Z,100995.25
2019-02-16T21:33:43.805Z,100995.19
2019-02-16T21:36:26.629Z,100992.12
2019-02-16T21:39:17.255Z,100992.03
2019-02-16T21:42:04.991Z,100991.14
2019-02-16T21:44:44.256Z,100994.63
2019-02-16T21:47:30.528Z,100991.59
2019-02-16T21:50:30.402Z,100991.05
2019-02-16T21:53:08.421Z,100997.00
2019-02-16T21:56:01.293Z,101000.83
2019-02-16T21:59:08.155Z,100992.30
2019-02-16T22:01:45.182Z,100989.25
2019-02-16T22:04:31.557Z,100997.38
2019-02-16T22:07:08.664Z,100989.44
2019-02-16T22:09:56.338Z,100984.98
2019-02-16T22:13:02.559Z,100984.73
2019-02-16T22:15:31.019Z,100984.39
2019-02-16T22:17:59.791Z,100982.69
2019-02-16T22:20:29.080Z,100978.05
2019-02-16T22:22:57.201Z,100979.63
2019-02-16T22:25:25.298Z,100974.31
2019-02-16T22:27:53.412Z,100973.42
2019-02-16T22:30:21.710Z,100974.14
2019-02-16T22:32:49.769Z,100969.41
2019-02-16T22:35:18.104Z,100969.20
2019-02-16T22:37:47.395Z,100977.03
2019-02-16T22:40:15.588Z,100971.09
2019-02-16T22:42:43.653Z,100969.44
2019-02-16T22:45:11.771Z,100965.52
2019-02-16T22:47:40.104Z,100965.66
2019-02-16T22:50:09.767Z,100965.91
2019-02-16T22:52:38.650Z,100967.48
2019-02-16T22:55:08.940Z,100964.05
2019-02-16T22:57:37.002Z,100967.62
2019-02-16T23:00:10.342Z,100967.86
2019-02-16T23:02:40.039Z,100970.61
2019-02-16T23:05:09.416Z,100976.80
2019-02-16T23:07:37.779Z,100973.50
2019-02-16T23:10:07.302Z,100974.56
2019-02-16T23:12:36.013Z,100976.83
2019-02-16T23:15:06.238Z,100980.19
2019-02-16T23:17:34.490Z,100976.86
2019-02-16T23:20:03.419Z,100981.38
2019-02-16T23:22:31.564Z,100984.72
2019-02-16T23:24:59.611Z,100982.03
2019-02-16T23:27:27.643Z,100985.12
2019-02-16T23:29:55.791Z,100987.48
2019-02-16T23:32:23.833Z,100986.92
2019-02-16T23:34:51.894Z,100982.77
2019-02-16T23:37:19.954Z,100983.39
2019-02-16T23:39:49.940Z,100981.05
2019-02-16T23:42:18.237Z,100986.37
2019-02-16T23:44:46.304Z,100983.81
2019-02-16T23:47:14.361Z,100981.78
2019-02-16T23:49:42.728Z,100977.45
2019-02-16T23:52:11.300Z,100982.42
2019-02-16T23:54:39.331Z,100984.20
2019-02-16T23:57:10.067Z,100981.86
2019-02-16T23:59:38.099Z,100987.08
